SHMÚ vydal meteorologické výstrahy na Vietor na horáchDážď Zobraziť výstrahy

TAF

Letisková predpoveď TAF

Informácie o správe TAF

22.09.2017 - 23:00 UTC (Včera)

TAF LZIB 222300Z 2300/2400 30008KT CAVOK
    BECMG 2307/2309 9999 SCT035 BKN080
    TEMPO 2314/2400 31014KT -RA BKN035=
TAF LZKZ 222300Z 2300/2400 36008KT 9999 SCT035 BKN080
    BECMG 2301/2303 24006KT -RA BKN035
    TEMPO 2305/2310 RA FEW010 BKN025
    BECMG 2311/2313 NSW
    TEMPO 2313/2320 -SHRA SCT020TCU BKN033
    BECMG 2320/2322 VRB02KT 2000 BR BKN015
    PROB30 TEMPO 2320/2400 0600 -DZ FG BKN002=
TAF LZTT 222300Z 2300/2400 03004KT 9999 FEW020
    BECMG 2301/2303 26008KT -RA FEW020 BKN030
    TEMPO 2304/2310 27014KT 4000 RA SCT008 BKN015
    BECMG 2310/2312 NSW BKN045
    TEMPO 2312/2320 -SHRA SCT025TCU BKN035
    PROB30 TEMPO 2320/2400 24003KT 2000 BCFG BKN008=

22.09.2017 - 17:00 UTC (Včera)

TAF LZSL 221700Z 2218/2303 06008KT 9999 FEW040 SCT080=
TAF LZPP 221700Z 2218/2303 34007KT 9999 FEW030 SCT080
    BECMG 2300/2302 02004KT 4000 MIFG FEW004 SCT013=
TAF LZZI 221700Z 2218/2303 05004KT 9999 FEW030 BKN090
    BECMG 2219/2221 VRB02KT FEW010 SCT030
    BECMG 2222/2300 3000 MIFG SCT002 SCT060=

skok na menu ↑


skok na začiatok stránky ↑